Time;durP1;ratioP1;P1;durP2;ratioP2;P2;SDS_P1;SDS_P2;PMS_P1;PMS_P2;Temp;Humidity;BMP_temperature;BMP_pressure;BME280_temperature;BME280_humidity;BME280_pressure;Samples;Min_cycle;Max_cycle;Signal;HPM_P1;HPM_P2
2022/06/25 00:01:12;;;;;;;;;4.00;2.00;;;;;;;;5119092;27;46364;-71
2022/06/25 00:03:38;;;;;;;;;3.00;2.33;;;;;;;;5119126;27;45235;-70
2022/06/25 00:06:04;;;;;;;;;4.00;2.67;;;;;;;;5119217;27;45209;-71
2022/06/25 00:08:30;;;;;;;;;5.00;5.00;;;;;;;;5119210;27;45295;-71
2022/06/25 00:10:55;;;;;;;;;2.67;2.67;;;;;;;;5119119;27;46397;-71
2022/06/25 00:13:21;;;;;;;;;5.67;4.33;;;;;;;;5118742;27;45145;-71
2022/06/25 00:15:46;;;;;;;;;4.33;4.33;;;;;;;;5119214;27;45294;-71
2022/06/25 00:18:12;;;;;;;;;4.00;3.67;;;;;;;;5119206;27;45153;-71
2022/06/25 00:20:37;;;;;;;;;4.00;2.33;;;;;;;;5118958;27;45596;-71
2022/06/25 00:23:03;;;;;;;;;2.00;2.00;;;;;;;;5118866;27;45424;-71
2022/06/25 00:25:28;;;;;;;;;2.33;2.33;;;;;;;;5118958;27;45645;-70
2022/06/25 00:27:53;;;;;;;;;3.67;3.00;;;;;;;;5119017;27;45465;-71
2022/06/25 00:30:18;;;;;;;;;2.67;1.00;;;;;;;;5118685;27;46324;-71
2022/06/25 00:32:44;;;;;;;;;4.00;2.00;;;;;;;;5118874;27;45451;-71
2022/06/25 00:35:09;;;;;;;;;5.00;5.00;;;;;;;;5118774;27;45363;-71
2022/06/25 00:37:34;;;;;;;;;5.00;3.00;;;;;;;;5118922;27;45439;-71
2022/06/25 00:40:00;;;;;;;;;3.00;2.00;;;;;;;;5118574;27;45413;-71
2022/06/25 00:42:25;;;;;;;;;4.67;2.00;;;;;;;;5121357;27;45298;-70
2022/06/25 00:44:53;;;;;;;;;4.33;2.00;;;;;;;;5122416;27;45294;-71
2022/06/25 00:47:19;;;;;;;;;3.00;3.00;;;;;;;;5122699;27;45347;-71
2022/06/25 00:49:44;;;;;;;;;1.00;1.00;;;;;;;;5121952;27;46385;-71
2022/06/25 00:52:10;;;;;;;;;4.33;3.00;;;;;;;;5122310;27;45265;-70
2022/06/25 00:54:37;;;;;;;;;2.00;2.00;;;;;;;;5122317;27;45279;-71
2022/06/25 00:57:04;;;;;;;;;2.33;2.33;;;;;;;;5122254;27;45304;-71
2022/06/25 00:59:33;;;;;;;;;2.00;2.00;;;;;;;;5121709;27;45329;-71
2022/06/25 01:01:58;;;;;;;;;3.67;2.00;;;;;;;;5122048;27;45309;-72
2022/06/25 01:04:23;;;;;;;;;2.00;2.00;;;;;;;;5122129;27;45300;-71
2022/06/25 01:06:49;;;;;;;;;4.00;2.00;;;;;;;;5120912;27;45466;-71
2022/06/25 01:09:14;;;;;;;;;2.00;2.00;;;;;;;;5121778;27;46459;-71
2022/06/25 01:11:39;;;;;;;;;3.00;3.00;;;;;;;;5121829;27;45197;-71
2022/06/25 01:14:09;;;;;;;;;3.00;3.00;;;;;;;;5121797;27;45279;-71
2022/06/25 01:16:34;;;;;;;;;6.00;3.00;;;;;;;;5122273;27;45368;-71
2022/06/25 01:19:04;;;;;;;;;2.00;2.00;;;;;;;;5121603;27;45267;-71
2022/06/25 01:21:29;;;;;;;;;5.33;3.00;;;;;;;;5121858;27;45321;-71
2022/06/25 01:23:54;;;;;;;;;1.00;1.00;;;;;;;;5121827;27;45348;-71
2022/06/25 01:26:19;;;;;;;;;2.00;2.00;;;;;;;;5121591;27;45300;-70
2022/06/25 01:28:45;;;;;;;;;1.00;1.00;;;;;;;;5121620;27;45317;-71
2022/06/25 01:31:10;;;;;;;;;1.00;1.00;;;;;;;;5120379;27;45477;-71
2022/06/25 01:33:35;;;;;;;;;3.00;2.00;;;;;;;;5121595;27;45310;-70
2022/06/25 01:36:01;;;;;;;;;3.00;1.33;;;;;;;;5121733;27;45390;-71
2022/06/25 01:38:26;;;;;;;;;2.00;2.00;;;;;;;;5121240;27;46415;-71
2022/06/25 01:40:51;;;;;;;;;2.00;1.00;;;;;;;;5121526;27;45283;-71
2022/06/25 01:43:16;;;;;;;;;3.67;2.00;;;;;;;;5121349;27;45226;-70
2022/06/25 01:45:42;;;;;;;;;2.00;1.00;;;;;;;;5121572;27;45403;-71
2022/06/25 01:48:07;;;;;;;;;3.33;2.00;;;;;;;;5121410;27;46337;-71
2022/06/25 01:50:33;;;;;;;;;4.00;2.00;;;;;;;;5121133;27;45413;-71
2022/06/25 01:52:59;;;;;;;;;1.00;1.00;;;;;;;;5121196;27;45393;-71
2022/06/25 01:55:24;;;;;;;;;2.00;2.00;;;;;;;;5121475;27;45410;-71
2022/06/25 01:57:50;;;;;;;;;3.00;2.00;;;;;;;;5120800;27;46130;-71
2022/06/25 02:00:23;;;;;;;;;1.00;1.00;;;;;;;;5120901;27;45339;-71
2022/06/25 02:02:48;;;;;;;;;2.00;1.00;;;;;;;;5120956;27;45319;-71
2022/06/25 02:05:14;;;;;;;;;3.00;2.00;;;;;;;;5121184;27;45423;-71
2022/06/25 02:07:40;;;;;;;;;1.00;1.00;;;;;;;;5121099;27;46757;-70
2022/06/25 02:10:05;;;;;;;;;1.00;1.00;;;;;;;;5120794;27;45347;-70
2022/06/25 02:12:30;;;;;;;;;1.00;1.00;;;;;;;;5120747;27;45469;-71
2022/06/25 02:14:56;;;;;;;;;1.00;1.00;;;;;;;;5121057;27;45444;-70
2022/06/25 02:17:21;;;;;;;;;1.00;1.00;;;;;;;;5120810;27;46542;-71
2022/06/25 02:19:46;;;;;;;;;1.00;1.00;;;;;;;;5120811;27;45378;-71
2022/06/25 02:22:14;;;;;;;;;1.33;1.00;;;;;;;;5120819;27;45315;-70
2022/06/25 02:24:41;;;;;;;;;0.33;0.33;;;;;;;;5120943;27;45498;-71
2022/06/25 02:27:07;;;;;;;;;1.33;1.33;;;;;;;;5120502;27;45325;-71
2022/06/25 02:29:32;;;;;;;;;0.67;0.00;;;;;;;;5120415;27;45269;-69
2022/06/25 02:31:57;;;;;;;;;1.00;1.00;;;;;;;;5120802;27;45733;-70
2022/06/25 02:34:22;;;;;;;;;1.00;1.00;;;;;;;;5120827;27;45377;-70
2022/06/25 02:36:49;;;;;;;;;3.67;1.00;;;;;;;;5120516;27;45325;-71
2022/06/25 02:39:14;;;;;;;;;1.33;0.67;;;;;;;;5120485;27;45256;-70
2022/06/25 02:41:40;;;;;;;;;3.00;1.67;;;;;;;;5120645;27;45334;-71
2022/06/25 02:44:05;;;;;;;;;1.00;1.00;;;;;;;;5120674;27;45340;-71
2022/06/25 02:46:30;;;;;;;;;1.00;1.00;;;;;;;;5120329;27;46601;-71
2022/06/25 02:48:55;;;;;;;;;0.67;0.67;;;;;;;;5120443;27;45358;-71
2022/06/25 02:51:21;;;;;;;;;1.33;1.33;;;;;;;;5120413;27;45843;-70
2022/06/25 02:53:46;;;;;;;;;1.00;1.00;;;;;;;;5120669;27;45433;-70
2022/06/25 02:58:55;;;;;;;;;1.00;1.00;;;;;;;;5119807;27;45471;-70
2022/06/25 03:01:20;;;;;;;;;1.00;1.00;;;;;;;;5120303;27;45360;-71
2022/06/25 03:03:46;;;;;;;;;1.33;1.00;;;;;;;;5119762;27;45354;-71
2022/06/25 03:06:11;;;;;;;;;1.00;1.00;;;;;;;;5119995;27;45469;-71
2022/06/25 03:08:37;;;;;;;;;1.00;0.00;;;;;;;;5120199;27;45330;-71
2022/06/25 03:11:02;;;;;;;;;0.00;0.00;;;;;;;;5120181;27;45318;-70
2022/06/25 03:13:29;;;;;;;;;1.33;1.00;;;;;;;;5120069;27;45399;-70
2022/06/25 03:15:54;;;;;;;;;0.00;0.00;;;;;;;;5119860;27;47233;-71
2022/06/25 03:18:19;;;;;;;;;0.67;0.67;;;;;;;;5119874;27;45168;-71
2022/06/25 03:20:44;;;;;;;;;0.00;0.00;;;;;;;;5120213;27;45294;-71
2022/06/25 03:23:10;;;;;;;;;0.67;0.67;;;;;;;;5120000;27;45412;-70
2022/06/25 03:25:35;;;;;;;;;1.00;1.00;;;;;;;;5119619;27;46617;-71
2022/06/25 03:28:00;;;;;;;;;1.00;0.67;;;;;;;;5119669;27;45447;-70
2022/06/25 03:30:25;;;;;;;;;2.67;1.00;;;;;;;;5119801;27;45315;-71
2022/06/25 03:32:51;;;;;;;;;0.00;0.00;;;;;;;;5120070;27;45649;-71
2022/06/25 03:35:16;;;;;;;;;1.00;1.00;;;;;;;;5119541;27;46459;-70
2022/06/25 03:37:41;;;;;;;;;0.33;0.00;;;;;;;;5119437;27;45428;-70
2022/06/25 03:40:07;;;;;;;;;0.67;0.00;;;;;;;;5119679;27;45292;-71
2022/06/25 03:42:32;;;;;;;;;2.00;0.00;;;;;;;;5119752;27;45282;-70
2022/06/25 03:44:57;;;;;;;;;0.67;0.67;;;;;;;;5119226;27;45508;-70
2022/06/25 03:47:22;;;;;;;;;0.00;0.00;;;;;;;;5119502;27;45310;-70
2022/06/25 03:49:48;;;;;;;;;0.00;0.00;;;;;;;;5119786;27;45327;-70
2022/06/25 03:52:13;;;;;;;;;0.00;0.00;;;;;;;;5119713;27;45252;-71
2022/06/25 03:54:38;;;;;;;;;0.00;0.00;;;;;;;;5119445;27;45482;-70
2022/06/25 03:57:04;;;;;;;;;2.00;1.00;;;;;;;;5119350;27;45418;-71
2022/06/25 03:59:29;;;;;;;;;0.00;0.00;;;;;;;;5119001;27;45379;-68
2022/06/25 04:01:54;;;;;;;;;4.00;1.00;;;;;;;;5119443;27;45314;-69
2022/06/25 04:04:20;;;;;;;;;0.00;0.00;;;;;;;;5119024;27;46790;-69
2022/06/25 04:06:45;;;;;;;;;0.00;0.00;;;;;;;;5119159;27;45359;-71
2022/06/25 04:09:11;;;;;;;;;0.67;0.67;;;;;;;;5119329;27;45437;-70
2022/06/25 04:11:36;;;;;;;;;0.00;0.00;;;;;;;;5119389;27;45471;-70
2022/06/25 04:14:01;;;;;;;;;0.33;0.33;;;;;;;;5118905;27;46211;-71
2022/06/25 04:16:27;;;;;;;;;3.00;0.00;;;;;;;;5117860;27;45313;-71
2022/06/25 04:18:52;;;;;;;;;1.00;0.00;;;;;;;;5119056;27;45406;-71
2022/06/25 04:21:17;;;;;;;;;0.25;0.00;;;;;;;;5119301;27;45318;-70
2022/06/25 04:23:42;;;;;;;;;2.00;0.00;;;;;;;;5118681;27;47187;-71
2022/06/25 04:26:08;;;;;;;;;1.75;0.00;;;;;;;;5118978;27;45518;-71
2022/06/25 04:31:17;;;;;;;;;0.00;0.00;;;;;;;;5119149;27;45332;-70
2022/06/25 04:33:42;;;;;;;;;2.00;0.00;;;;;;;;5118637;27;46145;-70
2022/06/25 04:36:07;;;;;;;;;0.00;0.00;;;;;;;;5118899;27;45717;-71
2022/06/25 04:38:33;;;;;;;;;0.00;0.00;;;;;;;;5118832;27;45282;-71
2022/06/25 04:40:58;;;;;;;;;0.00;0.00;;;;;;;;5119170;27;45544;-71
2022/06/25 04:43:23;;;;;;;;;0.00;0.00;;;;;;;;5118441;27;45367;-71
2022/06/25 04:45:49;;;;;;;;;0.00;0.00;;;;;;;;5118868;27;45257;-71
2022/06/25 04:48:14;;;;;;;;;0.00;0.00;;;;;;;;5118803;27;45215;-71
2022/06/25 04:50:42;;;;;;;;;1.33;0.00;;;;;;;;5118756;27;45361;-71
2022/06/25 04:53:07;;;;;;;;;1.33;1.00;;;;;;;;5118500;27;45476;-71
2022/06/25 04:55:32;;;;;;;;;1.00;1.00;;;;;;;;5118612;27;45472;-71
2022/06/25 04:57:57;;;;;;;;;2.00;0.00;;;;;;;;5118711;27;45286;-70
2022/06/25 05:00:22;;;;;;;;;0.33;0.33;;;;;;;;5118342;27;45272;-70
2022/06/25 05:02:48;;;;;;;;;0.67;0.00;;;;;;;;5118093;27;46571;-71
2022/06/25 05:05:13;;;;;;;;;0.33;0.33;;;;;;;;5118497;27;45141;-71
2022/06/25 05:07:38;;;;;;;;;0.00;0.00;;;;;;;;5118496;27;45405;-71
2022/06/25 05:10:04;;;;;;;;;0.00;0.00;;;;;;;;5118660;27;45379;-71
2022/06/25 05:15:13;;;;;;;;;2.00;0.00;;;;;;;;5117938;27;45318;-71
2022/06/25 05:17:38;;;;;;;;;0.00;0.00;;;;;;;;5118195;27;45236;-71
2022/06/25 05:20:03;;;;;;;;;0.33;0.33;;;;;;;;5118510;27;45191;-71
2022/06/25 05:22:29;;;;;;;;;2.25;0.00;;;;;;;;5118062;27;45433;-71
2022/06/25 05:24:54;;;;;;;;;2.00;0.00;;;;;;;;5118046;27;45584;-72
2022/06/25 05:27:20;;;;;;;;;0.33;0.33;;;;;;;;5119434;27;45408;-71
2022/06/25 05:29:45;;;;;;;;;1.00;0.33;;;;;;;;5121786;27;45306;-70
2022/06/25 05:32:10;;;;;;;;;2.00;0.00;;;;;;;;5121579;27;45614;-70
2022/06/25 05:34:36;;;;;;;;;0.00;0.00;;;;;;;;5121512;27;45367;-71
2022/06/25 05:37:01;;;;;;;;;1.00;1.00;;;;;;;;5120400;27;45327;-70
2022/06/25 05:39:26;;;;;;;;;0.33;0.00;;;;;;;;5121754;27;45381;-70
2022/06/25 05:41:51;;;;;;;;;2.00;0.00;;;;;;;;5121437;27;46432;-69
2022/06/25 05:44:16;;;;;;;;;0.00;0.00;;;;;;;;5121165;27;45302;-69
2022/06/25 05:46:42;;;;;;;;;1.00;0.00;;;;;;;;5121515;27;45389;-70
2022/06/25 05:49:07;;;;;;;;;0.00;0.00;;;;;;;;5121782;27;45433;-70
2022/06/25 05:51:32;;;;;;;;;3.33;0.00;;;;;;;;5121327;27;45367;-70
2022/06/25 05:53:58;;;;;;;;;1.00;0.00;;;;;;;;5121359;27;45890;-69
2022/06/25 05:56:23;;;;;;;;;0.00;0.00;;;;;;;;5121367;27;45375;-70
2022/06/25 05:58:48;;;;;;;;;3.00;0.00;;;;;;;;5121244;27;45473;-69
2022/06/25 06:01:13;;;;;;;;;2.00;2.00;;;;;;;;5120849;27;46283;-70
2022/06/25 06:03:38;;;;;;;;;0.00;0.00;;;;;;;;5120935;27;45310;-66
2022/06/25 06:06:04;;;;;;;;;4.00;0.00;;;;;;;;5121316;27;45291;-68
2022/06/25 06:08:29;;;;;;;;;1.00;0.00;;;;;;;;5121346;27;45212;-69
2022/06/25 06:10:54;;;;;;;;;2.00;1.00;;;;;;;;5120900;27;45559;-69
2022/06/25 06:13:19;;;;;;;;;1.67;0.00;;;;;;;;5120949;27;45536;-69
2022/06/25 06:15:45;;;;;;;;;0.25;0.25;;;;;;;;5120903;27;45327;-68
2022/06/25 06:18:10;;;;;;;;;0.50;0.00;;;;;;;;5121217;27;45384;-69
2022/06/25 06:20:35;;;;;;;;;0.00;0.00;;;;;;;;5120727;27;45595;-69
2022/06/25 06:23:01;;;;;;;;;0.00;0.00;;;;;;;;5120657;27;45267;-69
2022/06/25 06:25:26;;;;;;;;;2.00;1.00;;;;;;;;5120796;27;45235;-69
2022/06/25 06:27:52;;;;;;;;;0.00;0.00;;;;;;;;5120868;27;45230;-69
2022/06/25 06:30:17;;;;;;;;;1.00;1.00;;;;;;;;5120248;27;46478;-68
2022/06/25 06:32:43;;;;;;;;;1.67;1.33;;;;;;;;5120619;27;45320;-69
2022/06/25 06:35:08;;;;;;;;;1.33;1.00;;;;;;;;5120832;27;45359;-69
2022/06/25 06:37:34;;;;;;;;;1.00;1.00;;;;;;;;5120151;27;45747;-68
2022/06/25 06:39:59;;;;;;;;;0.00;0.00;;;;;;;;5119154;27;46098;-68
2022/06/25 06:42:24;;;;;;;;;0.00;0.00;;;;;;;;5120709;27;45358;-69
2022/06/25 06:44:50;;;;;;;;;4.33;0.00;;;;;;;;5120371;27;45494;-69
2022/06/25 06:47:15;;;;;;;;;1.75;0.00;;;;;;;;5120700;27;45366;-68
2022/06/25 06:49:40;;;;;;;;;3.33;2.00;;;;;;;;5120247;27;45636;-68
2022/06/25 06:52:06;;;;;;;;;1.67;0.33;;;;;;;;5119455;27;45416;-68
2022/06/25 06:54:31;;;;;;;;;4.00;4.00;;;;;;;;5120461;27;45309;-69
2022/06/25 06:56:56;;;;;;;;;0.00;0.00;;;;;;;;5120515;27;45431;-69
2022/06/25 06:59:22;;;;;;;;;2.00;1.00;;;;;;;;5119692;27;45478;-69
2022/06/25 07:01:47;;;;;;;;;16.67;16.67;;;;;;;;5120057;27;45386;-69
2022/06/25 07:04:12;;;;;;;;;2.67;1.67;;;;;;;;5119814;27;45412;-69
2022/06/25 07:06:37;;;;;;;;;0.67;0.67;;;;;;;;5120444;27;45374;-69
2022/06/25 07:09:03;;;;;;;;;0.00;0.00;;;;;;;;5119880;27;45377;-69
2022/06/25 07:11:28;;;;;;;;;1.00;1.00;;;;;;;;5120059;27;45941;-69
2022/06/25 07:13:54;;;;;;;;;0.33;0.00;;;;;;;;5120142;27;45315;-69
2022/06/25 07:16:20;;;;;;;;;1.00;1.00;;;;;;;;5118119;27;45458;-69
2022/06/25 07:18:45;;;;;;;;;0.33;0.33;;;;;;;;5119169;27;45456;-69
2022/06/25 07:21:10;;;;;;;;;1.67;1.00;;;;;;;;5114582;27;45390;-69
2022/06/25 07:23:36;;;;;;;;;0.00;0.00;;;;;;;;5098739;27;45331;-69
2022/06/25 07:26:01;;;;;;;;;0.00;0.00;;;;;;;;5118317;27;45542;-69
2022/06/25 07:28:26;;;;;;;;;0.00;0.00;;;;;;;;5119149;27;45360;-69
2022/06/25 07:30:51;;;;;;;;;2.00;0.00;;;;;;;;5119434;27;45330;-69
2022/06/25 07:33:17;;;;;;;;;0.33;0.33;;;;;;;;5119447;27;45191;-69
2022/06/25 07:35:43;;;;;;;;;1.67;0.00;;;;;;;;5119546;27;45521;-68
2022/06/25 07:38:08;;;;;;;;;2.00;0.00;;;;;;;;5109705;27;47300;-68
2022/06/25 07:40:33;;;;;;;;;1.00;1.00;;;;;;;;5098400;27;45388;-69
2022/06/25 07:42:58;;;;;;;;;2.00;2.00;;;;;;;;5098752;27;45189;-68
2022/06/25 07:45:24;;;;;;;;;2.33;2.00;;;;;;;;5098625;27;45644;-68
2022/06/25 07:47:49;;;;;;;;;2.00;2.00;;;;;;;;5109257;27;46164;-68
2022/06/25 07:52:58;;;;;;;;;2.00;2.00;;;;;;;;5127696;27;45322;-68
2022/06/25 07:55:23;;;;;;;;;3.33;1.00;;;;;;;;5139779;27;45496;-69
2022/06/25 07:57:48;;;;;;;;;5.00;3.00;;;;;;;;5139561;27;46572;-69
2022/06/25 08:00:14;;;;;;;;;1.00;1.00;;;;;;;;5137702;27;45878;-68
2022/06/25 08:02:40;;;;;;;;;0.00;0.00;;;;;;;;5139740;27;45574;-69
2022/06/25 08:05:05;;;;;;;;;3.33;1.00;;;;;;;;5139481;27;45733;-69
2022/06/25 08:07:30;;;;;;;;;1.33;1.00;;;;;;;;5139215;27;46473;-68
2022/06/25 08:09:55;;;;;;;;;0.00;0.00;;;;;;;;5139640;27;45444;-69
2022/06/25 08:12:21;;;;;;;;;1.33;1.00;;;;;;;;5139459;27;45313;-69
2022/06/25 08:14:46;;;;;;;;;2.00;0.00;;;;;;;;5140212;27;45422;-69
2022/06/25 08:17:11;;;;;;;;;0.67;0.67;;;;;;;;5139359;27;47504;-68
2022/06/25 08:19:36;;;;;;;;;0.00;0.00;;;;;;;;5125148;27;45353;-68
2022/06/25 08:22:02;;;;;;;;;3.00;2.00;;;;;;;;5118785;27;45331;-69
2022/06/25 08:24:27;;;;;;;;;0.00;0.00;;;;;;;;5118777;27;45395;-69
2022/06/25 08:26:52;;;;;;;;;2.00;2.00;;;;;;;;5118660;27;46588;-70
2022/06/25 08:29:18;;;;;;;;;1.00;1.00;;;;;;;;5118869;27;45445;-68
2022/06/25 08:31:43;;;;;;;;;1.00;1.00;;;;;;;;5118521;27;45415;-69
2022/06/25 08:34:08;;;;;;;;;0.00;0.00;;;;;;;;5118952;27;45398;-68
2022/06/25 08:36:33;;;;;;;;;1.00;1.00;;;;;;;;5118529;27;45346;-69
2022/06/25 08:38:59;;;;;;;;;1.00;1.00;;;;;;;;5118711;27;45351;-70
2022/06/25 08:41:24;;;;;;;;;2.67;0.00;;;;;;;;5118594;27;45280;-69
2022/06/25 08:43:49;;;;;;;;;0.67;0.67;;;;;;;;5117758;27;45330;-68
2022/06/25 08:46:15;;;;;;;;;5.00;4.67;;;;;;;;5118089;27;46397;-69
2022/06/25 08:48:42;;;;;;;;;5.33;2.00;;;;;;;;5118442;27;45280;-69
2022/06/25 08:51:08;;;;;;;;;1.00;1.00;;;;;;;;5118284;27;45402;-69
2022/06/25 08:53:34;;;;;;;;;2.67;1.00;;;;;;;;5118656;27;45552;-69
2022/06/25 08:56:00;;;;;;;;;2.00;0.67;;;;;;;;5118406;27;46984;-75
2022/06/25 08:58:25;;;;;;;;;3.00;0.67;;;;;;;;5117904;27;45354;-73
2022/06/25 09:00:50;;;;;;;;;1.00;0.00;;;;;;;;5118324;27;45409;-73
2022/06/25 09:03:16;;;;;;;;;0.00;0.00;;;;;;;;5121084;27;45297;-74
2022/06/25 09:05:42;;;;;;;;;0.00;0.00;;;;;;;;5121860;27;45469;-73
2022/06/25 09:08:11;;;;;;;;;3.00;2.67;;;;;;;;5121898;27;45302;-75
2022/06/25 09:10:37;;;;;;;;;0.00;0.00;;;;;;;;5121736;27;45319;-74
2022/06/25 09:13:04;;;;;;;;;2.00;2.00;;;;;;;;5121778;27;45213;-72
2022/06/25 09:15:31;;;;;;;;;1.33;1.00;;;;;;;;5121701;27;45418;-72
2022/06/25 09:17:57;;;;;;;;;1.00;1.00;;;;;;;;5121546;27;45306;-72
2022/06/25 09:20:22;;;;;;;;;3.67;2.67;;;;;;;;5121817;27;45481;-75
2022/06/25 09:22:58;;;;;;;;;2.00;2.00;;;;;;;;5122004;27;45306;-72
2022/06/25 09:25:24;;;;;;;;;1.67;1.00;;;;;;;;5121406;27;46655;-73
2022/06/25 09:27:49;;;;;;;;;1.00;1.00;;;;;;;;5121465;27;45170;-73
2022/06/25 09:30:16;;;;;;;;;1.00;1.00;;;;;;;;5121722;27;45251;-74
2022/06/25 09:32:42;;;;;;;;;3.00;3.00;;;;;;;;5121624;27;45436;-74
2022/06/25 09:35:08;;;;;;;;;4.00;1.00;;;;;;;;5121548;27;46130;-72
2022/06/25 09:37:33;;;;;;;;;5.33;2.33;;;;;;;;5121406;27;45247;-73
2022/06/25 09:39:58;;;;;;;;;1.00;1.00;;;;;;;;5121570;27;45946;-73
2022/06/25 09:42:26;;;;;;;;;1.00;1.00;;;;;;;;5121616;27;45465;-73
2022/06/25 09:45:17;;;;;;;;;4.00;1.67;;;;;;;;5120953;27;45603;-73
2022/06/25 09:47:43;;;;;;;;;1.33;1.33;;;;;;;;5119609;27;45200;-74
2022/06/25 09:50:08;;;;;;;;;2.33;1.33;;;;;;;;5121461;27;45231;-74
2022/06/25 09:52:34;;;;;;;;;4.00;2.33;;;;;;;;5121113;27;45564;-73
2022/06/25 09:55:00;;;;;;;;;2.67;2.00;;;;;;;;5120946;27;46491;-74
2022/06/25 09:57:26;;;;;;;;;3.67;2.00;;;;;;;;5120203;27;45311;-73
2022/06/25 09:59:53;;;;;;;;;6.00;2.00;;;;;;;;5120354;27;45317;-74
2022/06/25 10:02:19;;;;;;;;;1.33;1.00;;;;;;;;5120317;27;45379;-74
2022/06/25 10:04:44;;;;;;;;;3.33;2.00;;;;;;;;5120017;27;45538;-74
2022/06/25 10:07:10;;;;;;;;;1.00;1.00;;;;;;;;5120202;27;45485;-74
2022/06/25 10:09:39;;;;;;;;;2.00;2.00;;;;;;;;5120460;27;45429;-73
2022/06/25 10:12:05;;;;;;;;;3.00;0.67;;;;;;;;5117902;27;45408;-73
2022/06/25 10:14:30;;;;;;;;;4.33;3.67;;;;;;;;5118703;27;46907;-74
2022/06/25 10:16:56;;;;;;;;;1.00;1.00;;;;;;;;5119841;27;45477;-75
2022/06/25 10:19:24;;;;;;;;;0.67;0.67;;;;;;;;5120191;27;45311;-72
2022/06/25 10:21:50;;;;;;;;;5.33;5.33;;;;;;;;5120573;27;45368;-71
2022/06/25 10:24:15;;;;;;;;;1.67;1.67;;;;;;;;5120505;27;46355;-72
2022/06/25 10:26:41;;;;;;;;;1.67;0.00;;;;;;;;5120790;27;45259;-72
2022/06/25 10:29:25;;;;;;;;;0.00;0.00;;;;;;;;5120833;27;45322;-73
2022/06/25 10:31:50;;;;;;;;;2.00;2.00;;;;;;;;5100141;27;45627;-73
2022/06/25 10:34:15;;;;;;;;;1.33;0.67;;;;;;;;5099551;27;46200;-72
2022/06/25 10:36:40;;;;;;;;;0.67;0.67;;;;;;;;5100124;27;45422;-72
2022/06/25 10:39:26;;;;;;;;;1.00;1.00;;;;;;;;5100026;27;45298;-72
2022/06/25 10:44:54;;;;;;;;;1.33;1.33;;;;;;;;5114926;27;45755;-72
2022/06/25 10:47:36;;;;;;;;;0.33;0.33;;;;;;;;5119908;27;45445;-72
2022/06/25 10:50:20;;;;;;;;;3.00;3.00;;;;;;;;5120857;27;45364;-72
2022/06/25 10:53:17;;;;;;;;;4.00;1.00;;;;;;;;5120417;27;45405;-72
2022/06/25 10:55:48;;;;;;;;;1.33;1.33;;;;;;;;5097301;27;47334;-73
2022/06/25 10:58:13;;;;;;;;;2.00;2.00;;;;;;;;5096994;27;45435;-73
2022/06/25 11:00:45;;;;;;;;;3.00;1.00;;;;;;;;5097217;27;45360;-72
2022/06/25 11:03:10;;;;;;;;;15.00;14.67;;;;;;;;5097221;27;45645;-73
2022/06/25 11:05:42;;;;;;;;;3.33;2.67;;;;;;;;5097065;27;46023;-72
2022/06/25 11:08:07;;;;;;;;;2.00;2.00;;;;;;;;5097222;27;45375;-72
2022/06/25 11:10:36;;;;;;;;;2.33;1.00;;;;;;;;5097439;27;45448;-73
2022/06/25 11:13:03;;;;;;;;;2.33;1.00;;;;;;;;5097445;27;45493;-72
2022/06/25 11:15:38;;;;;;;;;2.67;1.00;;;;;;;;5096605;27;46486;-73
2022/06/25 11:18:10;;;;;;;;;2.33;2.00;;;;;;;;5096319;27;45553;-72
2022/06/25 11:20:36;;;;;;;;;3.33;2.00;;;;;;;;5096390;27;45484;-72
2022/06/25 11:23:02;;;;;;;;;8.33;4.67;;;;;;;;5096704;27;45269;-73
2022/06/25 11:31:13;;;;;;;;;1.67;1.00;;;;;;;;5107155;27;45494;-71
2022/06/25 11:33:40;;;;;;;;;2.00;2.00;;;;;;;;5119535;27;45438;-74
2022/06/25 11:36:09;;;;;;;;;1.00;1.00;;;;;;;;5119420;27;46436;-72
2022/06/25 11:38:34;;;;;;;;;3.00;2.00;;;;;;;;5119699;27;45435;-75
2022/06/25 11:40:59;;;;;;;;;6.00;3.67;;;;;;;;5119412;27;45259;-75
2022/06/25 11:43:26;;;;;;;;;0.00;0.00;;;;;;;;5119662;27;45438;-78
2022/06/25 11:46:00;;;;;;;;;3.00;2.00;;;;;;;;5119355;27;46888;-77
2022/06/25 11:48:26;;;;;;;;;1.67;1.67;;;;;;;;5119138;27;45332;-76
2022/06/25 11:50:54;;;;;;;;;1.00;1.00;;;;;;;;5119278;27;45327;-72
2022/06/25 11:53:20;;;;;;;;;2.00;2.00;;;;;;;;5119630;27;45721;-69
2022/06/25 11:55:58;;;;;;;;;1.00;1.00;;;;;;;;5119178;27;45824;-73
2022/06/25 11:58:26;;;;;;;;;2.00;1.67;;;;;;;;5118917;27;45228;-78
2022/06/25 12:00:53;;;;;;;;;5.33;1.00;;;;;;;;5119196;27;45296;-72
2022/06/25 12:03:22;;;;;;;;;2.67;2.00;;;;;;;;5119107;27;45303;-72
2022/06/25 12:05:49;;;;;;;;;5.00;4.67;;;;;;;;5118836;27;47697;-72
2022/06/25 12:08:15;;;;;;;;;2.00;2.00;;;;;;;;5119178;27;45319;-72
2022/06/25 12:10:42;;;;;;;;;2.00;2.00;;;;;;;;5118993;27;45391;-70
2022/06/25 12:13:07;;;;;;;;;1.00;1.00;;;;;;;;5119071;27;45302;-72
2022/06/25 12:15:32;;;;;;;;;4.33;4.33;;;;;;;;5118606;27;46955;-71
2022/06/25 12:18:04;;;;;;;;;5.00;2.00;;;;;;;;5118769;27;45385;-72
2022/06/25 12:20:29;;;;;;;;;2.00;2.00;;;;;;;;5118951;27;45312;-71
2022/06/25 12:22:56;;;;;;;;;3.00;3.00;;;;;;;;5119027;27;45380;-69
2022/06/25 12:25:32;;;;;;;;;3.00;2.00;;;;;;;;5118515;27;45708;-70
2022/06/25 12:27:58;;;;;;;;;2.00;2.00;;;;;;;;5118841;27;45334;-72
2022/06/25 12:30:27;;;;;;;;;2.33;2.33;;;;;;;;5118841;27;45437;-71
2022/06/25 12:32:53;;;;;;;;;2.00;2.00;;;;;;;;5118854;27;45445;-68
2022/06/25 12:35:20;;;;;;;;;4.00;4.00;;;;;;;;5118740;27;46092;-67
2022/06/25 12:38:05;;;;;;;;;3.00;2.00;;;;;;;;5117276;27;45385;-70
2022/06/25 12:40:36;;;;;;;;;3.33;1.67;;;;;;;;5117992;27;45354;-72
2022/06/25 12:43:01;;;;;;;;;3.33;2.00;;;;;;;;5119054;27;45225;-74
2022/06/25 12:45:29;;;;;;;;;4.00;3.00;;;;;;;;5118337;27;47410;-69
2022/06/25 12:47:54;;;;;;;;;2.00;2.00;;;;;;;;5118457;27;45470;-70
2022/06/25 12:50:21;;;;;;;;;4.33;4.33;;;;;;;;5118616;27;45206;-74
2022/06/25 12:52:46;;;;;;;;;4.33;3.00;;;;;;;;5118682;27;45241;-79
2022/06/25 12:55:17;;;;;;;;;2.67;2.00;;;;;;;;5118655;27;45325;-76
2022/06/25 12:57:42;;;;;;;;;1.67;1.67;;;;;;;;5118226;27;45352;-74
2022/06/25 13:00:18;;;;;;;;;1.00;1.00;;;;;;;;5118231;27;45218;-72
2022/06/25 13:02:44;;;;;;;;;2.67;1.67;;;;;;;;5109711;27;45483;-71
2022/06/25 13:05:09;;;;;;;;;2.00;2.00;;;;;;;;5104957;27;46202;-69
2022/06/25 13:07:34;;;;;;;;;5.00;2.00;;;;;;;;5118147;27;45436;-71
2022/06/25 13:09:59;;;;;;;;;2.00;2.00;;;;;;;;5118614;27;45195;-66
2022/06/25 13:12:25;;;;;;;;;4.67;2.33;;;;;;;;5118705;27;45388;-67
2022/06/25 13:14:51;;;;;;;;;4.33;4.33;;;;;;;;5116465;27;47554;-68
2022/06/25 13:17:16;;;;;;;;;1.00;1.00;;;;;;;;5118174;27;45429;-68
2022/06/25 13:19:41;;;;;;;;;3.67;2.00;;;;;;;;5117595;27;45349;-72
2022/06/25 13:22:06;;;;;;;;;4.00;2.00;;;;;;;;5118591;27;45289;-70
2022/06/25 13:24:32;;;;;;;;;15.67;14.00;;;;;;;;5117726;27;45389;-71
2022/06/25 13:26:57;;;;;;;;;3.00;3.00;;;;;;;;5117916;27;45463;-69
2022/06/25 13:29:24;;;;;;;;;5.67;4.33;;;;;;;;5118205;27;45420;-70
2022/06/25 13:31:49;;;;;;;;;3.67;2.33;;;;;;;;5118086;27;45306;-71
2022/06/25 13:34:14;;;;;;;;;3.00;3.00;;;;;;;;5117471;27;45997;-74
2022/06/25 13:36:40;;;;;;;;;1.00;1.00;;;;;;;;5117122;27;45385;-75
2022/06/25 13:39:06;;;;;;;;;3.67;2.00;;;;;;;;5117601;27;45754;-73
2022/06/25 13:41:31;;;;;;;;;2.33;2.33;;;;;;;;5118004;27;45448;-74
2022/06/25 13:43:57;;;;;;;;;4.67;3.33;;;;;;;;5117323;27;46498;-71
2022/06/25 13:46:22;;;;;;;;;5.67;2.00;;;;;;;;5117568;27;45268;-73
2022/06/25 13:48:48;;;;;;;;;4.00;3.00;;;;;;;;5118776;27;45464;-71
2022/06/25 13:51:13;;;;;;;;;2.00;1.00;;;;;;;;5121381;27;45257;-69
2022/06/25 13:53:38;;;;;;;;;1.67;1.67;;;;;;;;5120883;27;45295;-75
2022/06/25 13:56:04;;;;;;;;;3.33;3.33;;;;;;;;5121164;27;45215;-72
2022/06/25 13:58:29;;;;;;;;;1.33;1.33;;;;;;;;5121020;27;45282;-74
2022/06/25 14:00:57;;;;;;;;;2.00;2.00;;;;;;;;5121130;27;45361;-73
2022/06/25 14:03:22;;;;;;;;;1.67;1.67;;;;;;;;5120629;27;47475;-74
2022/06/25 14:05:47;;;;;;;;;2.00;2.00;;;;;;;;5121139;27;45389;-73
2022/06/25 14:08:12;;;;;;;;;2.00;2.00;;;;;;;;5121083;27;45243;-71
2022/06/25 14:10:38;;;;;;;;;2.00;2.00;;;;;;;;5120940;27;45445;-71
2022/06/25 14:13:03;;;;;;;;;2.00;2.00;;;;;;;;5120739;27;46569;-69
2022/06/25 14:15:28;;;;;;;;;2.00;2.00;;;;;;;;5120994;27;45447;-69
2022/06/25 14:17:53;;;;;;;;;2.67;2.00;;;;;;;;5121053;27;45354;-71
2022/06/25 14:20:19;;;;;;;;;3.00;3.00;;;;;;;;5120882;27;45381;-73
2022/06/25 14:22:44;;;;;;;;;5.00;3.67;;;;;;;;5116564;27;46489;-69
2022/06/25 14:25:21;;;;;;;;;2.00;2.00;;;;;;;;5108901;27;45314;-71
2022/06/25 14:27:49;;;;;;;;;3.00;3.00;;;;;;;;5099961;27;45330;-70
2022/06/25 14:30:15;;;;;;;;;3.00;3.00;;;;;;;;5100481;27;45198;-70
2022/06/25 14:32:40;;;;;;;;;3.00;2.33;;;;;;;;5099914;27;47117;-68
2022/06/25 14:35:06;;;;;;;;;2.00;2.00;;;;;;;;5099784;27;45391;-69
2022/06/25 14:42:59;;;;;;;;;3.00;3.00;;;;;;;;5099603;27;45316;-69
2022/06/25 14:45:25;;;;;;;;;3.67;3.00;;;;;;;;5099714;27;45295;-68
2022/06/25 14:47:50;;;;;;;;;4.67;3.33;;;;;;;;5100014;27;45729;-69
2022/06/25 14:50:15;;;;;;;;;4.00;2.00;;;;;;;;5099798;27;45341;-69
2022/06/25 14:52:41;;;;;;;;;4.00;3.00;;;;;;;;5099888;27;46177;-70
2022/06/25 14:55:06;;;;;;;;;5.67;3.00;;;;;;;;5099541;27;45304;-68
2022/06/25 14:57:32;;;;;;;;;2.00;2.00;;;;;;;;5099576;27;45389;-68
2022/06/25 14:59:57;;;;;;;;;2.00;2.00;;;;;;;;5098786;27;45523;-68
2022/06/25 15:02:22;;;;;;;;;2.00;2.00;;;;;;;;5099382;27;46610;-68